Time;durP1;ratioP1;P1;durP2;ratioP2;P2;SDS_P1;SDS_P2;PMS_P1;PMS_P2;Temp;Humidity;BMP_temperature;BMP_pressure;BME280_temperature;BME280_humidity;BME280_pressure;Samples;Min_cycle;Max_cycle;Signal;HPM_P1;HPM_P2
2022/10/24 00:03:21;;;;;;;8.52;2.03;;;;;;;12.56;100.00;100274.88;12921298;22;20031;-89
2022/10/24 00:08:22;;;;;;;4.00;2.50;;;;;;;13.05;100.00;100360.56;12896246;22;20004;-89
2022/10/24 00:13:22;;;;;;;7.35;2.17;;;;;;;12.81;100.00;100287.75;12893282;22;20043;-90
2022/10/24 00:18:23;;;;;;;6.10;1.63;;;;;;;12.98;100.00;100337.13;12894181;22;20063;-90
2022/10/24 00:23:24;;;;;;;5.90;2.10;;;;;;;11.82;100.00;100159.47;12893243;22;20011;-86
2022/10/24 00:28:24;;;;;;;9.65;2.47;;;;;;;11.95;100.00;100215.16;12944040;22;20366;-87
2022/10/24 00:33:25;;;;;;;7.18;2.75;;;;;;;12.10;100.00;100260.09;12893354;22;20019;-86
2022/10/24 00:38:26;;;;;;;5.50;2.00;;;;;;;11.93;100.00;100211.88;12905938;22;20003;-86
2022/10/24 00:43:26;;;;;;;3.58;2.03;;;;;;;11.80;100.00;100216.84;12893627;22;20083;-90
2022/10/24 00:48:28;;;;;;;5.82;2.40;;;;;;;12.78;100.00;100388.59;12896966;22;20346;-89
2022/10/24 00:53:29;;;;;;;7.82;2.55;;;;;;;11.23;100.00;100162.88;12921167;22;20016;-86
2022/10/24 00:58:31;;;;;;;5.75;2.38;;;;;;;11.93;100.00;100302.91;12896543;22;20405;-86
2022/10/24 01:03:32;;;;;;;8.23;2.90;;;;;;;12.06;100.00;100338.22;12897008;22;20466;-86
2022/10/24 01:08:46;;;;;;;8.60;3.45;;;;;;;10.78;100.00;100147.97;12898063;22;20000;-86
2022/10/24 01:14:02;;;;;;;8.90;2.85;;;;;;;11.30;100.00;100210.25;12922883;22;20016;-86
2022/10/24 01:19:21;;;;;;;9.97;2.67;;;;;;;12.49;100.00;100385.63;12884556;22;20004;-86
2022/10/24 01:24:36;;;;;;;6.10;2.67;;;;;;;11.86;100.00;100279.16;12946478;22;20035;-87
2022/10/24 01:30:17;;;;;;;9.73;2.63;;;;;;;12.65;100.00;100420.38;12923728;22;20311;-90
2022/10/24 01:35:34;;;;;;;7.50;2.20;;;;;;;12.13;100.00;100300.09;12829713;22;20073;-90
2022/10/24 01:40:53;;;;;;;5.78;2.20;;;;;;;12.97;100.00;100358.41;12902575;22;20393;-90
2022/10/24 01:46:00;;;;;;;6.22;1.63;;;;;;;12.19;100.00;100207.94;12949072;22;20008;-88
2022/10/24 01:51:01;;;;;;;6.60;1.90;;;;;;;12.31;100.00;100180.00;12897986;22;20020;-90
2022/10/24 01:56:01;;;;;;;8.95;2.33;;;;;;;12.91;100.00;100255.38;12898169;22;20035;-90
2022/10/24 02:01:06;;;;;;;5.47;2.00;;;;;;;12.25;100.00;100132.28;12898366;22;20018;-86
2022/10/24 02:06:13;;;;;;;6.78;1.80;;;;;;;12.62;100.00;100180.69;12896372;22;20014;-87
2022/10/24 02:11:14;;;;;;;;;;;;;;;13.60;100.00;100299.72;12894574;22;20012;-91
2022/10/24 02:16:16;;;;;;;7.28;2.45;;;;;;;13.07;100.00;100222.94;12948784;22;19990;-89
2022/10/24 02:21:36;;;;;;;9.25;2.60;;;;;;;12.95;100.00;100200.38;12920893;22;20011;-90
2022/10/24 02:27:00;;;;;;;10.30;3.13;;;;;;;13.73;100.00;100314.84;12875459;22;20022;-90
2022/10/24 02:32:00;;;;;;;7.65;2.55;;;;;;;12.67;100.00;100124.59;12898310;22;20016;-90
2022/10/24 02:37:01;;;;;;;8.00;2.92;;;;;;;13.76;100.00;100266.41;12871160;22;20000;-90
2022/10/24 02:42:02;;;;;;;12.95;3.63;;;;;;;12.71;100.00;100067.66;12894696;22;20129;-89
2022/10/24 02:47:03;;;;;;;5.43;2.60;;;;;;;13.50;100.00;100165.13;12893753;22;20010;-86
2022/10/24 02:52:04;;;;;;;9.38;2.95;;;;;;;13.07;100.00;100097.78;12893298;22;20026;-87
2022/10/24 02:57:04;;;;;;;8.02;2.83;;;;;;;13.58;100.00;100194.09;12894537;22;20010;-87
2022/10/24 03:02:05;;;;;;;6.60;2.60;;;;;;;12.98;100.00;100081.00;12894173;22;20008;-86
2022/10/24 03:07:06;;;;;;;5.30;2.58;;;;;;;13.44;100.00;100169.06;12917863;22;20007;-86
2022/10/24 03:12:06;;;;;;;9.13;2.97;;;;;;;13.04;100.00;100088.13;12917571;22;20043;-86
2022/10/24 03:17:07;;;;;;;11.48;2.75;;;;;;;13.02;100.00;100103.31;12892388;22;20405;-86
2022/10/24 03:22:07;;;;;;;10.75;2.53;;;;;;;13.38;100.00;100145.34;12895432;22;20000;-87
2022/10/24 03:27:08;;;;;;;7.72;3.05;;;;;;;12.50;100.00;99995.22;12893995;22;20015;-86
2022/10/24 03:32:09;;;;;;;6.57;2.15;;;;;;;13.28;100.00;100128.81;12893814;22;20023;-90
2022/10/24 03:37:09;;;;;;;10.40;2.05;;;;;;;13.24;100.00;100152.63;12895534;22;19999;-90
2022/10/24 03:42:10;;;;;;;8.20;2.78;;;;;;;12.98;100.00;100097.56;12892448;22;20004;-89
2022/10/24 03:47:10;;;;;;;7.95;2.35;;;;;;;13.15;100.00;100112.88;12894795;22;20007;-89
2022/10/24 03:52:11;;;;;;;12.05;2.60;;;;;;;12.67;100.00;100041.75;12894900;22;20395;-89
2022/10/24 03:57:11;;;;;;;7.57;2.42;;;;;;;12.73;100.00;100054.38;12895010;22;20419;-90
2022/10/24 04:02:13;;;;;;;14.30;2.58;;;;;;;13.19;100.00;100138.81;12894487;22;20010;-86
2022/10/24 04:07:13;;;;;;;7.75;2.35;;;;;;;12.52;100.00;100017.84;12892466;22;20430;-86
2022/10/24 04:12:14;;;;;;;12.60;2.47;;;;;;;13.30;100.00;100118.31;12889973;22;20011;-86
2022/10/24 04:17:14;;;;;;;4.57;2.05;;;;;;;13.27;100.00;100113.31;12890303;22;20023;-87
2022/10/24 04:22:15;;;;;;;11.85;2.47;;;;;;;12.95;100.00;100053.94;12891932;22;20004;-86
2022/10/24 04:27:15;;;;;;;7.07;2.47;;;;;;;13.22;100.00;100099.56;12891767;22;20007;-86
2022/10/24 04:32:16;;;;;;;5.45;2.03;;;;;;;12.88;100.00;100058.97;12881867;22;20329;-86
2022/10/24 04:37:17;;;;;;;5.47;2.70;;;;;;;13.05;100.00;100069.59;12895716;22;20004;-86
2022/10/24 04:42:17;;;;;;;4.70;2.05;;;;;;;14.04;100.00;100199.16;12922193;22;20003;-90
2022/10/24 04:47:18;;;;;;;7.82;3.30;;;;;;;13.27;100.00;100102.25;12918173;22;20008;-86
2022/10/24 04:52:18;;;;;;;6.60;1.80;;;;;;;12.97;100.00;100087.63;12895076;22;20038;-90
2022/10/24 04:57:19;;;;;;;4.93;1.38;;;;;;;12.65;100.00;100008.91;12921298;22;20423;-90
2022/10/24 05:02:19;;;;;;;8.75;2.00;;;;;;;13.25;100.00;100113.63;12896542;22;20012;-90
2022/10/24 05:07:20;;;;;;;8.25;1.90;;;;;;;12.95;100.00;100040.13;12895935;22;20087;-90
2022/10/24 05:12:21;;;;;;;5.32;1.27;;;;;;;13.18;100.00;100091.03;12894631;22;20465;-90
2022/10/24 05:17:21;;;;;;;6.63;1.67;;;;;;;12.72;100.00;99992.81;12896103;22;20019;-86
2022/10/24 05:22:22;;;;;;;6.93;1.63;;;;;;;12.88;100.00;99995.44;12869680;22;20431;-90
2022/10/24 05:27:23;;;;;;;6.65;2.03;;;;;;;14.13;100.00;100197.38;12895231;22;20369;-91
2022/10/24 05:32:24;;;;;;;7.90;1.70;;;;;;;13.48;100.00;100065.03;12894942;22;20008;-90
2022/10/24 05:37:24;;;;;;;5.32;1.52;;;;;;;13.48;100.00;100070.56;12882025;22;20061;-91
2022/10/24 05:42:25;;;;;;;5.03;1.20;;;;;;;13.42;100.00;100093.06;12894167;22;20006;-90
2022/10/24 05:47:26;;;;;;;8.80;2.33;;;;;;;13.49;100.00;100119.22;12894616;22;20033;-90
2022/10/24 05:52:26;;;;;;;4.20;1.30;;;;;;;13.60;100.00;100127.41;12893353;22;20508;-89
2022/10/24 05:57:28;;;;;;;8.43;1.65;;;;;;;13.52;100.00;100099.28;12893581;22;20007;-90
2022/10/24 06:02:29;;;;;;;7.57;1.60;;;;;;;13.73;100.00;100143.31;12892341;22;20046;-87
2022/10/24 06:07:30;;;;;;;4.07;1.10;;;;;;;13.58;100.00;100082.63;12890568;22;20000;-86
2022/10/24 06:12:31;;;;;;;3.92;1.15;;;;;;;13.25;100.00;100071.31;12891801;22;20453;-87
2022/10/24 06:17:32;;;;;;;7.80;1.42;;;;;;;13.90;100.00;100163.03;12901200;22;20028;-87
2022/10/24 06:22:33;;;;;;;7.72;1.42;;;;;;;12.98;100.00;100013.84;12916405;22;20012;-87
2022/10/24 06:27:33;;;;;;;11.65;1.58;;;;;;;13.13;100.00;100025.56;12915876;22;20022;-87
2022/10/24 06:32:34;;;;;;;6.25;1.10;;;;;;;13.81;100.00;100117.78;12892090;22;20040;-87
2022/10/24 06:37:35;;;;;;;4.57;1.27;;;;;;;13.58;100.00;100068.78;12892096;22;20015;-87
2022/10/24 06:42:35;;;;;;;6.13;1.23;;;;;;;13.61;100.00;100059.94;12892000;22;20004;-86
2022/10/24 06:47:36;;;;;;;5.07;1.30;;;;;;;12.43;100.00;99906.41;12914467;22;20073;-87
2022/10/24 06:52:36;;;;;;;6.50;1.10;;;;;;;13.03;100.00;100022.91;12888992;22;20019;-87
2022/10/24 06:57:37;;;;;;;6.72;1.15;;;;;;;13.69;100.00;100131.19;12889957;22;20369;-86
2022/10/24 07:02:37;;;;;;;5.43;1.48;;;;;;;12.66;100.00;99960.03;12886043;22;20011;-87
2022/10/24 07:07:39;;;;;;;6.63;1.20;;;;;;;13.09;100.00;100046.63;12873020;22;20049;-87
2022/10/24 07:12:39;;;;;;;4.43;1.15;;;;;;;13.86;100.00;100141.78;12833403;22;20077;-87
2022/10/24 07:17:41;;;;;;;8.60;1.40;;;;;;;13.53;100.00;100073.28;12860421;22;20044;-87
2022/10/24 07:22:44;;;;;;;4.72;1.20;;;;;;;12.68;100.00;99955.84;12872925;22;20430;-88
2022/10/24 07:27:44;;;;;;;7.22;2.35;;;;;;;13.90;100.00;100129.84;12874726;22;20008;-87
2022/10/24 07:32:47;;;;;;;3.88;1.00;;;;;;;13.55;100.00;100056.38;12882469;22;20011;-89
2022/10/24 07:37:48;;;;;;;8.63;1.55;;;;;;;14.42;100.00;100152.16;12924262;22;20004;-88
2022/10/24 07:42:49;;;;;;;5.70;1.10;;;;;;;13.83;100.00;100032.53;12888762;22;20011;-90
2022/10/24 07:47:49;;;;;;;7.15;0.93;;;;;;;14.32;100.00;100078.38;12889148;22;20011;-91
2022/10/24 07:52:50;;;;;;;6.60;1.63;;;;;;;14.16;100.00;100054.81;12888443;22;20028;-90
2022/10/24 07:57:50;;;;;;;5.88;1.15;;;;;;;14.09;100.00;100057.09;12872488;22;20007;-91
2022/10/24 08:02:51;;;;;;;5.38;1.13;;;;;;;14.20;100.00;100055.84;12887788;22;20332;-91
2022/10/24 08:07:51;;;;;;;5.15;1.10;;;;;;;13.41;100.00;99940.13;12889113;22;20042;-91
2022/10/24 08:12:52;;;;;;;4.93;0.80;;;;;;;13.60;100.00;99970.63;12855410;22;20331;-88
2022/10/24 08:17:53;;;;;;;6.75;0.98;;;;;;;14.27;100.00;100053.53;12883880;22;20026;-88
2022/10/24 08:22:54;;;;;;;6.57;1.42;;;;;;;13.84;100.00;99955.91;12883526;22;20012;-89
2022/10/24 08:27:54;;;;;;;6.70;1.08;;;;;;;14.15;100.00;99966.50;12886892;22;20007;-88
2022/10/24 08:32:55;;;;;;;7.65;1.67;;;;;;;14.92;100.00;100099.06;12886935;22;20043;-88
2022/10/24 08:37:56;;;;;;;6.45;1.35;;;;;;;14.83;100.00;100075.97;12911079;22;20020;-88
2022/10/24 08:42:57;;;;;;;9.85;1.50;;;;;;;14.72;100.00;100059.50;12899618;22;20011;-88
2022/10/24 08:48:03;;;;;;;7.55;0.90;;;;;;;15.41;100.00;100119.88;12872383;22;20011;-90
2022/10/24 08:53:14;;;;;;;6.90;1.67;;;;;;;15.98;100.00;100183.50;12886246;22;20455;-87
2022/10/24 08:58:26;;;;;;;7.80;1.13;;;;;;;15.03;100.00;100020.19;12886034;22;20000;-89
2022/10/24 09:03:32;;;;;;;7.75;1.35;;;;;;;15.27;100.00;100092.09;12846202;22;20004;-87
2022/10/24 09:08:52;;;;;;;9.70;1.35;;;;;;;15.98;100.00;100132.69;12894833;22;20008;-88
2022/10/24 09:13:53;;;;;;;6.40;1.38;;;;;;;15.63;100.00;100071.19;12873106;22;20027;-89
2022/10/24 09:18:54;;;;;;;12.93;2.55;;;;;;;15.67;100.00;100105.53;12908651;22;20019;-87
2022/10/24 09:23:55;;;;;;;8.85;1.30;;;;;;;15.41;100.00;100072.72;12872552;22;20022;-88
2022/10/24 09:28:55;;;;;;;7.97;1.52;;;;;;;15.70;100.00;100079.94;12892563;22;20129;-84
2022/10/24 09:33:59;;;;;;;8.93;1.73;;;;;;;15.97;100.00;100136.59;12941869;22;20008;-86
2022/10/24 09:39:31;;;;;;;14.50;2.25;;;;;;;16.37;100.00;100206.31;12879586;22;20000;-87
2022/10/24 09:44:36;;;;;;;8.43;2.55;;;;;;;16.31;100.00;100178.66;12895365;22;20006;-85
2022/10/24 09:49:39;;;;;;;9.48;1.13;;;;;;;16.13;100.00;100157.38;12919085;22;20008;-86
2022/10/24 09:54:40;;;;;;;8.60;1.15;;;;;;;16.13;100.00;100162.94;12889421;22;20012;-84
2022/10/24 09:59:59;;;;;;;8.82;1.52;;;;;;;16.40;100.00;100211.28;12890177;22;20090;-84
2022/10/24 10:05:03;;;;;;;7.22;1.48;;;;;;;15.80;100.00;100132.50;12893321;22;20034;-85
2022/10/24 10:10:18;;;;;;;6.53;1.25;;;;;;;16.64;100.00;100250.78;12942248;22;20010;-82
2022/10/24 10:15:25;;;;;;;5.90;1.17;;;;;;;16.44;100.00;100196.44;12970264;22;20460;-84
2022/10/24 10:20:37;;;;;;;7.53;1.58;;;;;;;16.82;100.00;100195.38;12917326;22;20472;-85
2022/10/24 10:25:38;;;;;;;6.10;1.13;;;;;;;17.59;100.00;100226.91;12894008;22;20030;-85
2022/10/24 10:30:39;;;;;;;6.75;1.42;;;;;;;18.05;100.00;100237.69;12868087;22;20039;-85
2022/10/24 10:36:08;;;;;;;8.70;1.13;;;;;;;18.03;100.00;100250.31;12916447;22;20015;-85
2022/10/24 10:41:17;;;;;;;7.35;1.20;;;;;;;17.48;100.00;100235.50;12918117;22;20011;-84
2022/10/24 10:46:41;;;;;;;7.65;1.05;;;;;;;17.38;100.00;100279.47;12943014;22;20008;-83
2022/10/24 10:51:50;;;;;;;6.95;1.20;;;;;;;16.98;100.00;100252.28;12941639;22;20031;-83
2022/10/24 10:57:27;;;;;;;3.65;1.45;;;;;;;16.50;100.00;100205.50;12895802;22;20008;-85
2022/10/24 11:02:49;;;;;;;5.57;0.85;;;;;;;16.85;100.00;100242.03;12719328;22;20015;-84
2022/10/24 11:08:21;;;;;;;4.47;0.70;;;;;;;17.20;100.00;100272.91;12918387;22;20065;-84
2022/10/24 11:14:09;;;;;;;6.40;0.95;;;;;;;17.21;100.00;100230.06;12896280;22;20043;-88
2022/10/24 11:19:41;;;;;;;4.80;0.55;;;;;;;17.58;100.00;100278.16;12879812;22;20026;-91
2022/10/24 11:24:49;;;;;;;6.22;0.95;;;;;;;16.11;100.00;100084.66;12849744;22;20365;-85
2022/10/24 11:29:56;;;;;;;5.28;0.80;;;;;;;16.49;100.00;100148.28;12899535;22;20012;-88
2022/10/24 11:35:15;;;;;;;5.10;0.70;;;;;;;17.31;100.00;100314.09;12857546;22;20244;-88
2022/10/24 11:40:20;;;;;;;8.65;2.00;;;;;;;16.49;100.00;100201.06;12922209;22;20377;-89
2022/10/24 11:45:23;;;;;;;4.32;1.13;;;;;;;17.42;100.00;100342.50;12875892;22;20393;-88
2022/10/24 11:50:35;;;;;;;3.95;0.90;;;;;;;17.26;100.00;100325.38;12899776;22;20010;-87
2022/10/24 11:55:37;;;;;;;6.05;0.80;;;;;;;15.63;100.00;100110.06;12910135;22;20019;-88
2022/10/24 12:01:07;;;;;;;4.63;0.65;;;;;;;16.94;100.00;100315.22;12873020;22;20011;-88
2022/10/24 12:06:32;;;;;;;4.00;0.63;;;;;;;16.30;100.00;100252.00;12860464;22;20029;-89
2022/10/24 12:12:18;;;;;;;5.57;0.95;;;;;;;15.38;100.00;100095.53;12909977;22;20015;-88
2022/10/24 12:17:21;;;;;;;5.93;0.73;;;;;;;16.47;100.00;100270.81;12854575;22;20091;-89
2022/10/24 12:22:28;;;;;;;9.02;0.70;;;;;;;16.13;100.00;100212.91;12892723;22;20015;-88
2022/10/24 12:27:34;;;;;;;2.10;0.60;;;;;;;16.37;100.00;100123.81;12838237;22;20011;-89
2022/10/24 12:32:42;;;;;;;5.10;0.80;;;;;;;18.53;100.00;100336.44;12829293;22;20426;-87
2022/10/24 12:37:45;;;;;;;8.65;1.58;;;;;;;16.64;100.00;100149.88;12858344;22;20082;-88
2022/10/24 12:42:46;;;;;;;5.95;0.90;;;;;;;17.68;100.00;100372.56;12890539;22;20069;-89
2022/10/24 12:47:52;;;;;;;5.13;0.80;;;;;;;17.89;100.00;100359.81;12905272;22;20093;-89
2022/10/24 12:53:02;;;;;;;;;;;;;;;17.25;100.00;100359.88;12863767;22;20326;-88
2022/10/24 12:58:20;;;;;;;4.30;1.52;;;;;;;16.64;100.00;100338.84;12921520;22;20264;-87
2022/10/24 13:03:21;;;;;;;;;;;;;;;16.99;100.00;100383.78;12892515;22;20053;-90
2022/10/24 13:08:25;;;;;;;5.30;0.68;;;;;;;16.50;100.00;100288.84;12916500;22;19906;-89
2022/10/24 13:13:38;;;;;;;4.47;0.90;;;;;;;17.15;100.00;100377.59;12911388;22;20126;-91
2022/10/24 13:18:45;;;;;;;5.47;0.65;;;;;;;16.66;100.00;100318.00;12895058;22;20397;-88
2022/10/24 13:23:46;;;;;;;5.55;0.88;;;;;;;16.70;100.00;100396.84;12914104;22;20003;-89
2022/10/24 13:28:47;;;;;;;2.83;0.70;;;;;;;15.81;100.00;100242.34;12876335;22;20014;-89
2022/10/24 13:33:48;;;;;;;6.78;0.90;;;;;;;16.67;100.00;100361.31;12871343;22;20078;-90
2022/10/24 13:38:59;;;;;;;6.90;0.70;;;;;;;16.88;100.00;100222.75;12861185;22;20038;-91
2022/10/24 13:44:27;;;;;;;7.13;1.70;;;;;;;17.01;100.00;100265.56;12845219;22;19995;-90
2022/10/24 13:49:32;;;;;;;7.53;1.08;;;;;;;16.08;100.00;100182.47;12861057;22;20015;-89
2022/10/24 13:54:34;;;;;;;8.27;1.92;;;;;;;16.44;100.00;100323.44;12810038;22;20525;-90
2022/10/24 13:59:36;;;;;;;5.50;0.70;;;;;;;16.94;100.00;100265.97;12843740;22;20079;-90
2022/10/24 14:04:38;;;;;;;5.05;0.88;;;;;;;17.82;100.00;100355.78;12936715;22;20023;-88
2022/10/24 14:09:42;;;;;;;4.28;0.90;;;;;;;17.31;100.00;100397.56;12861190;22;19995;-88
2022/10/24 14:14:47;;;;;;;5.95;0.90;;;;;;;16.00;100.00;100249.81;12816130;22;20027;-89
2022/10/24 14:19:53;;;;;;;5.20;0.70;;;;;;;15.54;100.00;100249.47;12863324;22;20362;-89
2022/10/24 14:24:57;;;;;;;3.22;0.55;;;;;;;15.88;100.00;100301.09;12891052;22;20083;-89
2022/10/24 14:29:59;;;;;;;3.22;0.93;;;;;;;15.80;100.00;100301.78;12875380;22;20393;-89
2022/10/24 14:35:00;;;;;;;2.95;0.55;;;;;;;15.55;100.00;100291.91;12888961;22;20020;-88
2022/10/24 14:40:00;;;;;;;4.00;0.82;;;;;;;15.46;100.00;100238.22;12863693;22;20326;-90
2022/10/24 14:45:01;;;;;;;3.65;0.47;;;;;;;15.76;100.00;100259.13;12852533;22;20008;-88
2022/10/24 14:50:02;;;;;;;4.18;0.70;;;;;;;15.77;100.00;100341.22;12857762;22;20003;-88
2022/10/24 14:55:06;;;;;;;6.32;0.80;;;;;;;15.38;100.00;100342.38;12892108;22;20498;-91
2022/10/24 15:00:20;;;;;;;4.22;0.70;;;;;;;15.10;100.00;100319.19;12865572;22;20000;-89
2022/10/24 15:05:28;;;;;;;2.60;0.70;;;;;;;13.93;100.00;100226.13;12833223;22;20022;-90
2022/10/24 15:10:32;;;;;;;3.83;1.17;;;;;;;14.03;100.00;100266.69;12755793;22;20451;-89
2022/10/24 15:15:48;;;;;;;4.90;0.70;;;;;;;14.96;100.00;100435.50;12737045;22;20063;-89
2022/10/24 15:20:50;;;;;;;4.10;1.00;;;;;;;14.05;100.00;100322.56;12786739;23;20086;-88
2022/10/24 15:26:13;;;;;;;4.00;1.42;;;;;;;13.95;100.00;100319.88;12760146;23;20008;-89
2022/10/24 15:31:18;;;;;;;5.35;0.73;;;;;;;14.21;100.00;100386.09;12824585;23;20330;-88
2022/10/24 15:36:26;;;;;;;2.72;0.80;;;;;;;13.73;100.00;100288.00;12823595;23;20007;-87
2022/10/24 15:41:26;;;;;;;4.50;0.90;;;;;;;14.66;100.00;100469.94;12824490;23;20055;-88
2022/10/24 15:46:27;;;;;;;6.28;1.23;;;;;;;14.68;100.00;100500.94;12790688;23;20016;-88
2022/10/24 15:51:28;;;;;;;4.47;1.33;;;;;;;13.30;100.00;100264.84;12847916;23;20066;-88
2022/10/24 15:56:28;;;;;;;3.03;0.80;;;;;;;13.88;100.00;100377.53;12796615;23;20078;-89
2022/10/24 16:01:33;;;;;;;4.05;1.00;;;;;;;13.78;100.00;100381.19;12811668;23;20031;-90
2022/10/24 16:06:34;;;;;;;7.70;1.20;;;;;;;13.43;100.00;100360.94;12779195;23;20001;-88
2022/10/24 16:11:35;;;;;;;7.90;1.70;;;;;;;13.82;100.00;100448.66;12838132;23;20386;-87
2022/10/24 16:16:36;;;;;;;6.10;0.98;;;;;;;13.85;100.00;100478.53;12823669;22;20398;-87
2022/10/24 16:21:37;;;;;;;4.35;1.00;;;;;;;13.25;100.00;100394.75;12888356;22;20137;-87
2022/10/24 16:26:38;;;;;;;1.92;0.80;;;;;;;13.07;100.00;100363.06;12874386;22;20010;-88
2022/10/24 16:31:38;;;;;;;4.88;1.10;;;;;;;13.46;100.00;100425.94;12888356;22;20030;-87
2022/10/24 16:36:39;;;;;;;7.65;1.55;;;;;;;13.57;100.00;100498.59;12847107;22;20003;-88
2022/10/24 16:41:44;;;;;;;8.95;0.80;;;;;;;13.73;100.00;100525.09;12932088;22;20008;-88
2022/10/24 16:46:45;;;;;;;3.40;0.90;;;;;;;13.47;100.00;100505.00;12876341;22;20099;-89
2022/10/24 16:51:45;;;;;;;7.53;1.70;;;;;;;13.79;100.00;100534.16;12840390;22;20020;-89
2022/10/24 16:56:47;;;;;;;4.10;1.00;;;;;;;12.52;100.00;100382.28;12870862;22;20012;-89
2022/10/24 17:01:53;;;;;;;6.03;1.33;;;;;;;13.02;100.00;100496.56;12745365;22;20427;-91
2022/10/24 17:06:54;;;;;;;8.10;1.93;;;;;;;12.97;100.00;100446.81;12834924;22;20095;-93
2022/10/24 17:11:58;;;;;;;5.93;1.73;;;;;;;12.95;100.00;100478.59;12822007;22;20826;-91
2022/10/24 17:17:21;;;;;;;6.82;1.60;;;;;;;12.68;100.00;100475.06;12735948;22;20093;-89
2022/10/24 17:22:22;;;;;;;5.75;2.15;;;;;;;12.13;100.00;100407.72;12852062;22;20019;-88
2022/10/24 17:27:23;;;;;;;5.45;1.63;;;;;;;12.18;100.00;100440.84;12845543;22;20011;-89
2022/10/24 17:32:24;;;;;;;5.88;1.67;;;;;;;13.66;100.00;100704.38;12885988;22;20045;-90
2022/10/24 17:37:38;;;;;;;9.05;2.33;;;;;;;12.64;100.00;100547.69;12762950;22;20007;-90
2022/10/24 17:42:39;;;;;;;5.97;2.03;;;;;;;12.48;100.00;100549.63;12851067;22;20023;-90
2022/10/24 17:47:41;;;;;;;5.50;2.55;;;;;;;12.17;100.00;100505.41;12890811;22;20011;-87
2022/10/24 17:52:42;;;;;;;10.63;2.25;;;;;;;12.61;100.00;100631.94;12922967;22;20075;-88
2022/10/24 17:57:43;;;;;;;5.63;1.88;;;;;;;11.95;100.00;100535.16;12862964;22;20038;-88
2022/10/24 18:02:50;;;;;;;10.77;2.70;;;;;;;11.41;100.00;100448.97;12928177;22;20057;-87
2022/10/24 18:07:52;;;;;;;9.63;3.05;;;;;;;11.99;100.00;100550.06;12904689;22;20027;-89
2022/10/24 18:12:52;;;;;;;12.10;3.08;;;;;;;11.19;100.00;100442.81;12905646;22;20445;-89
2022/10/24 18:17:53;;;;;;;9.85;2.83;;;;;;;11.35;100.00;100490.53;12883757;22;20098;-89
2022/10/24 18:22:54;;;;;;;14.32;3.08;;;;;;;12.23;100.00;100628.53;12904364;22;20072;-89
2022/10/24 18:27:55;;;;;;;19.50;3.83;;;;;;;12.20;100.00;100607.00;12930967;22;20493;-89
2022/10/24 18:32:56;;;;;;;8.40;2.85;;;;;;;11.63;100.00;100527.88;12904864;22;20110;-89
2022/10/24 18:37:57;;;;;;;14.02;3.00;;;;;;;12.16;100.00;100647.28;12887892;22;20015;-87
2022/10/24 18:43:01;;;;;;;10.70;3.83;;;;;;;11.60;100.00;100520.16;12902249;22;20003;-90
2022/10/24 18:48:02;;;;;;;14.93;3.83;;;;;;;11.72;100.00;100578.66;12842870;22;20043;-90
2022/10/24 18:53:10;;;;;;;8.50;3.47;;;;;;;10.57;100.00;100419.63;12866202;22;20015;-91
2022/10/24 18:58:11;;;;;;;9.73;3.05;;;;;;;12.59;100.00;100765.84;12822588;22;20011;-89
2022/10/24 19:03:28;;;;;;;10.07;3.67;;;;;;;11.99;100.00;100641.97;12870299;22;20011;-89
2022/10/24 19:08:29;;;;;;;11.50;4.10;;;;;;;10.98;100.00;100508.81;12952917;22;20004;-90
2022/10/24 19:14:26;;;;;;;;;;;;;;;;;;;;;
2022/10/24 19:19:33;;;;;;;14.07;4.28;;;;;;;12.05;100.00;100700.75;12477552;23;20039;-88
2022/10/24 19:24:51;;;;;;;11.80;4.95;;;;;;;10.50;100.00;100456.47;12249899;23;20106;-90
2022/10/24 19:29:52;;;;;;;16.20;5.55;;;;;;;11.00;100.00;100588.44;12704480;23;20359;-90
2022/10/24 19:34:53;;;;;;;19.65;6.25;;;;;;;10.87;100.00;100556.66;12671492;22;20016;-90
2022/10/24 19:39:55;;;;;;;13.73;5.30;;;;;;;10.83;100.00;100550.00;12866932;22;20016;-90
2022/10/24 19:44:56;;;;;;;12.05;5.03;;;;;;;10.20;100.00;100484.53;12840056;22;20008;-89
2022/10/24 19:50:53;;;;;;;;;;;;;;;;;;;;;
2022/10/24 19:56:23;;;;;;;29.30;5.22;;;;;;;10.57;100.00;100549.81;12401015;22;20009;-91
2022/10/24 20:32:20;;;;;;;16.35;3.97;;;;;;;9.83;100.00;100482.50;13136831;21;1301605;-90
2022/10/24 20:44:09;;;;;;;15.23;4.05;;;;;;;10.78;100.00;100649.94;12758369;22;20009;-88
2022/10/24 20:49:13;;;;;;;14.27;4.10;;;;;;;10.58;100.00;100617.53;12697763;22;20060;-89
2022/10/24 20:54:19;;;;;;;;;;;;;;;11.61;100.00;100794.78;12737532;22;20030;-90
2022/10/24 20:59:29;;;;;;;18.27;5.45;;;;;;;9.86;100.00;100523.25;12897753;22;19911;-91
2022/10/24 21:04:39;;;;;;;20.77;5.18;;;;;;;11.49;100.00;100815.09;12880025;22;20018;-91
2022/10/24 21:09:58;;;;;;;;;;;;;;;;;;;;;
2022/10/24 21:15:05;;;;;;;20.60;5.03;;;;;;;11.52;100.00;100806.28;12814016;22;20027;-89
2022/10/24 21:20:06;;;;;;;14.45;4.45;;;;;;;10.37;100.00;100665.22;12840340;22;20023;-87
2022/10/24 21:25:07;;;;;;;16.58;4.20;;;;;;;10.70;100.00;100733.84;12852501;22;20004;-88
2022/10/24 21:30:09;;;;;;;27.27;5.50;;;;;;;10.32;100.00;100673.44;12900149;22;20011;-88
2022/10/24 21:35:15;;;;;;;12.15;4.55;;;;;;;9.90;100.00;100614.28;12891889;22;20023;-89
2022/10/24 21:40:19;;;;;;;19.52;4.13;;;;;;;10.17;100.00;100663.88;12911968;22;20039;-90
2022/10/24 21:45:50;;;;;;;19.38;4.38;;;;;;;10.15;100.00;100646.78;12781054;22;20062;-92
2022/10/24 21:50:50;;;;;;;9.68;3.50;;;;;;;10.89;100.00;100821.63;12853919;22;20015;-90
2022/10/24 21:55:51;;;;;;;17.67;4.82;;;;;;;10.14;100.00;100683.63;12847136;22;20008;-90
2022/10/24 22:01:04;;;;;;;17.13;4.93;;;;;;;9.58;100.00;100605.91;12726678;22;20020;-90
2022/10/24 22:07:10;;;;;;;;;;;;;;;;;;;;;
2022/10/24 22:19:06;;;;;;;14.95;3.70;;;;;;;9.99;100.00;100686.19;11623573;23;10172492;-93
2022/10/24 23:01:39;;;;;;;18.33;7.40;;;;;;;10.78;100.00;100885.94;13092678;22;1798397;-90
2022/10/24 23:06:50;;;;;;;19.33;8.05;;;;;;;9.60;100.00;100732.94;12882374;22;20019;-88
2022/10/24 23:11:51;;;;;;;21.30;8.48;;;;;;;10.70;100.00;100870.69;12920577;22;20002;-88
2022/10/24 23:16:54;;;;;;;18.70;8.38;;;;;;;9.86;100.00;100732.22;13030325;22;20007;-89
2022/10/24 23:22:07;;;;;;;16.60;8.80;;;;;;;9.14;100.00;100627.81;12956611;22;20018;-89
2022/10/24 23:27:10;;;;;;;28.50;9.82;;;;;;;10.92;100.00;100920.28;12928903;22;20045;-89
